Time;durP1;ratioP1;P1;durP2;ratioP2;P2;SDS_P1;SDS_P2;PMS_P1;PMS_P2;Temp;Humidity;BMP_temperature;BMP_pressure;BME280_temperature;BME280_humidity;BME280_pressure;Samples;Min_cycle;Max_cycle;Signal;HPM_P1;HPM_P2
2022/08/07 00:01:09;;;;;;;7.85;6.90;;;12.90;99.90;;;;;;5081521;28;20040;-72
2022/08/07 00:03:35;;;;;;;8.27;7.30;;;12.80;99.90;;;;;;5083599;28;20036;-73
2022/08/07 00:06:03;;;;;;;8.68;7.20;;;12.80;99.90;;;;;;5084564;28;20497;-72
2022/08/07 00:08:29;;;;;;;8.70;6.65;;;12.70;99.90;;;;;;5082508;28;20438;-71
2022/08/07 00:10:55;;;;;;;9.38;6.78;;;12.70;99.90;;;;;;5069301;28;20048;-71
2022/08/07 00:13:21;;;;;;;11.75;7.25;;;12.70;99.90;;;;;;5083522;28;20428;-72
2022/08/07 00:15:48;;;;;;;8.25;6.80;;;12.60;99.90;;;;;;5082879;28;20051;-73
2022/08/07 00:18:19;;;;;;;13.05;6.60;;;12.60;99.90;;;;;;5081720;28;20511;-73
2022/08/07 00:20:45;;;;;;;7.40;6.50;;;12.60;99.90;;;;;;5083999;28;20108;-73
2022/08/07 00:23:11;;;;;;;7.68;6.25;;;12.50;99.90;;;;;;5082053;28;20581;-72
2022/08/07 00:25:36;;;;;;;6.72;6.13;;;12.50;99.90;;;;;;5075378;28;20166;-74
2022/08/07 00:28:02;;;;;;;9.75;6.18;;;12.50;99.90;;;;;;5065151;28;20130;-73
2022/08/07 00:30:28;;;;;;;9.68;6.72;;;12.50;99.90;;;;;;5067732;28;20047;-75
2022/08/07 00:32:58;;;;;;;10.75;6.38;;;12.40;99.90;;;;;;5082625;28;20066;-73
2022/08/07 00:35:24;;;;;;;11.85;6.60;;;12.40;99.90;;;;;;5080233;28;20047;-73
2022/08/07 00:37:50;;;;;;;9.02;6.20;;;12.40;99.90;;;;;;5080986;28;20509;-72
2022/08/07 00:40:17;;;;;;;8.20;6.45;;;12.40;99.90;;;;;;5080037;28;20045;-72
2022/08/07 00:42:43;;;;;;;8.57;6.85;;;12.40;99.90;;;;;;5068656;28;20055;-73
2022/08/07 00:45:10;;;;;;;8.57;6.40;;;12.40;99.90;;;;;;5081460;28;20040;-74
2022/08/07 00:47:36;;;;;;;9.02;6.35;;;12.30;99.90;;;;;;5084049;28;20843;-72
2022/08/07 00:50:03;;;;;;;9.75;7.15;;;12.40;99.90;;;;;;5068439;28;20044;-71
2022/08/07 00:52:29;;;;;;;11.70;7.10;;;12.30;99.90;;;;;;5080579;28;20100;-72
2022/08/07 00:54:54;;;;;;;10.85;7.07;;;12.30;99.90;;;;;;5069646;28;20044;-72
2022/08/07 00:57:22;;;;;;;9.77;6.50;;;12.30;99.90;;;;;;5073178;28;20056;-72
2022/08/07 00:59:47;;;;;;;9.40;7.00;;;12.20;99.90;;;;;;5079969;28;20055;-72
2022/08/07 01:02:13;;;;;;;8.35;6.45;;;12.20;99.90;;;;;;5085485;28;20402;-74
2022/08/07 01:04:39;;;;;;;9.30;7.22;;;12.30;99.90;;;;;;5088399;28;20122;-73
2022/08/07 01:07:05;;;;;;;10.20;6.88;;;12.20;99.90;;;;;;5085201;28;20074;-74
2022/08/07 01:09:31;;;;;;;8.68;6.70;;;12.20;99.90;;;;;;5071996;28;20055;-73
2022/08/07 01:11:58;;;;;;;8.07;6.80;;;12.20;99.90;;;;;;5064252;28;20040;-73
2022/08/07 01:14:24;;;;;;;11.07;7.47;;;12.20;99.90;;;;;;5097700;28;20459;-73
2022/08/07 01:16:50;;;;;;;8.68;6.90;;;12.20;99.90;;;;;;5069260;28;20430;-72
2022/08/07 01:19:17;;;;;;;9.48;7.13;;;12.10;99.90;;;;;;5085556;28;20113;-71
2022/08/07 01:21:45;;;;;;;8.43;6.50;;;12.20;99.90;;;;;;5081483;28;20151;-72
2022/08/07 01:24:11;;;;;;;8.20;6.68;;;12.00;99.90;;;;;;5081976;28;20464;-73
2022/08/07 01:26:37;;;;;;;9.30;7.38;;;12.00;99.90;;;;;;5090442;28;20495;-72
2022/08/07 01:29:04;;;;;;;11.27;7.40;;;12.10;99.90;;;;;;5086173;28;20028;-73
2022/08/07 01:31:32;;;;;;;9.90;7.13;;;12.10;99.90;;;;;;5086638;28;20090;-71
2022/08/07 01:34:00;;;;;;;10.02;7.38;;;12.10;99.90;;;;;;5085382;28;20040;-71
2022/08/07 01:36:27;;;;;;;9.68;7.28;;;12.00;99.90;;;;;;5070954;28;20059;-71
2022/08/07 01:38:54;;;;;;;11.02;7.00;;;12.10;99.90;;;;;;5064834;28;20651;-73
2022/08/07 01:41:20;;;;;;;9.80;7.47;;;12.10;99.90;;;;;;5085448;28;20218;-72
2022/08/07 01:43:48;;;;;;;9.40;7.07;;;12.10;99.90;;;;;;5067474;28;20039;-72
2022/08/07 01:46:15;;;;;;;9.27;7.05;;;12.10;99.90;;;;;;5085705;28;20044;-70
2022/08/07 01:48:42;;;;;;;8.50;6.60;;;12.10;99.90;;;;;;5084993;28;21658;-74
2022/08/07 01:51:10;;;;;;;9.05;6.88;;;12.00;99.90;;;;;;5082866;28;20048;-73
2022/08/07 01:53:38;;;;;;;8.82;6.78;;;12.00;99.90;;;;;;5087311;28;20040;-72
2022/08/07 01:56:47;;;;;;;8.15;6.45;;;11.90;99.90;;;;;;5083133;28;20035;-73
2022/08/07 01:59:42;;;;;;;9.35;6.78;;;12.00;99.90;;;;;;5007490;28;20492;-73
2022/08/07 02:02:16;;;;;;;;;;;11.90;99.90;;;;;;5004884;28;20111;-71
2022/08/07 02:04:48;;;;;;;8.88;6.50;;;11.90;99.90;;;;;;5011016;28;19920;-73
2022/08/07 02:07:16;;;;;;;9.75;5.97;;;11.90;99.90;;;;;;5008622;28;20077;-73
2022/08/07 02:09:45;;;;;;;6.95;5.82;;;11.80;99.90;;;;;;5022981;28;20226;-73
2022/08/07 02:12:18;;;;;;;9.98;5.93;;;11.80;99.90;;;;;;5020456;28;20121;-75
2022/08/07 02:14:54;;;;;;;8.82;4.93;;;11.90;99.90;;;;;;5026343;28;20377;-73
2022/08/07 02:17:22;;;;;;;6.38;4.78;;;11.80;99.90;;;;;;5025341;28;20049;-73
2022/08/07 02:19:48;;;;;;;6.05;5.43;;;11.70;99.90;;;;;;4989017;28;20140;-71
2022/08/07 02:22:16;;;;;;;7.40;6.30;;;11.90;99.90;;;;;;5001927;28;20444;-72
2022/08/07 02:24:43;;;;;;;8.73;6.72;;;11.70;99.90;;;;;;5013306;28;20516;-71
2022/08/07 02:27:10;;;;;;;11.73;8.00;;;11.70;99.90;;;;;;5020923;28;20056;-73
2022/08/07 02:29:39;;;;;;;11.23;7.78;;;11.70;99.90;;;;;;5005861;28;20208;-71
2022/08/07 02:32:07;;;;;;;11.10;8.20;;;11.70;99.90;;;;;;5010975;28;20041;-73
2022/08/07 02:34:34;;;;;;;11.98;7.65;;;11.70;99.90;;;;;;5068776;28;20040;-73
2022/08/07 02:37:02;;;;;;;10.20;8.05;;;11.70;99.90;;;;;;5086371;28;20604;-71
2022/08/07 02:39:29;;;;;;;14.57;8.13;;;11.70;99.90;;;;;;5086264;28;20439;-75
2022/08/07 02:41:56;;;;;;;10.57;8.00;;;11.60;99.90;;;;;;5060945;28;20036;-73
2022/08/07 02:44:23;;;;;;;12.93;8.18;;;11.70;99.90;;;;;;5089424;28;20075;-72
2022/08/07 02:46:52;;;;;;;12.85;8.38;;;11.60;99.90;;;;;;5085909;28;20108;-73
2022/08/07 02:49:18;;;;;;;10.70;8.63;;;11.70;99.90;;;;;;5071207;28;20050;-71
2022/08/07 02:51:46;;;;;;;12.98;8.63;;;11.70;99.90;;;;;;5083971;28;20028;-74
2022/08/07 02:54:12;;;;;;;13.45;8.00;;;11.70;99.90;;;;;;5070960;28;20039;-72
2022/08/07 02:56:40;;;;;;;11.82;7.40;;;11.70;99.90;;;;;;5084978;28;20432;-72
2022/08/07 02:59:10;;;;;;;11.23;8.50;;;11.60;99.90;;;;;;5084642;28;20134;-73
2022/08/07 03:01:38;;;;;;;12.32;7.95;;;11.70;99.90;;;;;;5066536;28;20503;-73
2022/08/07 03:04:09;;;;;;;9.60;7.18;;;11.70;99.90;;;;;;5068134;28;20115;-72
2022/08/07 03:06:35;;;;;;;12.82;8.15;;;11.60;99.90;;;;;;5086103;28;22255;-73
2022/08/07 03:09:03;;;;;;;12.90;8.27;;;11.60;99.90;;;;;;5084673;28;20063;-71
2022/08/07 03:11:30;;;;;;;10.07;7.93;;;11.60;99.90;;;;;;5085788;28;20048;-72
2022/08/07 03:13:56;;;;;;;12.02;8.20;;;11.60;99.90;;;;;;5060330;28;20051;-74
2022/08/07 03:16:23;;;;;;;10.88;7.90;;;11.60;99.90;;;;;;5083922;28;20040;-73
2022/08/07 03:18:49;;;;;;;9.80;7.80;;;11.60;99.90;;;;;;5066461;28;20479;-71
2022/08/07 03:21:16;;;;;;;12.10;8.35;;;11.50;99.90;;;;;;5085077;28;20557;-72
2022/08/07 03:23:44;;;;;;;10.88;7.63;;;11.50;99.90;;;;;;5080768;28;20032;-72
2022/08/07 03:26:10;;;;;;;12.40;7.57;;;11.50;99.90;;;;;;5080190;28;20424;-73
2022/08/07 03:28:38;;;;;;;10.43;7.90;;;11.50;99.90;;;;;;5084195;28;20047;-71
2022/08/07 03:31:20;;;;;;;10.35;7.95;;;11.50;99.90;;;;;;5086429;28;20040;-74
2022/08/07 03:33:48;;;;;;;11.18;7.80;;;11.40;99.90;;;;;;5083256;28;20118;-71
2022/08/07 03:36:17;;;;;;;12.27;7.65;;;11.40;99.90;;;;;;5088348;28;20032;-73
2022/08/07 03:38:45;;;;;;;10.38;8.02;;;11.40;99.90;;;;;;5088235;28;20052;-71
2022/08/07 03:41:13;;;;;;;9.13;7.25;;;11.40;99.90;;;;;;5083417;28;20404;-75
2022/08/07 03:43:40;;;;;;;11.32;7.90;;;11.50;99.90;;;;;;5082975;28;20486;-73
2022/08/07 03:46:06;;;;;;;10.07;7.45;;;11.40;99.90;;;;;;5083763;28;20051;-73
2022/08/07 03:48:34;;;;;;;8.27;7.22;;;11.50;99.90;;;;;;5083666;28;20040;-72
2022/08/07 03:51:01;;;;;;;11.10;7.78;;;11.50;99.90;;;;;;5081077;28;20052;-73
2022/08/07 03:53:27;;;;;;;9.73;7.20;;;11.50;99.90;;;;;;5087005;28;20517;-72
2022/08/07 03:55:55;;;;;;;10.80;7.22;;;11.40;99.90;;;;;;5081586;28;20045;-73
2022/08/07 03:58:21;;;;;;;9.65;6.88;;;11.40;99.90;;;;;;5065817;28;20044;-70
2022/08/07 04:00:52;;;;;;;9.90;6.88;;;11.40;99.90;;;;;;5084785;28;20104;-73
2022/08/07 04:03:19;;;;;;;8.90;6.97;;;11.40;99.90;;;;;;5069146;28;20040;-74
2022/08/07 04:05:45;;;;;;;10.57;7.60;;;11.40;99.90;;;;;;5078756;28;20124;-72
2022/08/07 04:08:12;;;;;;;10.93;7.47;;;11.30;99.90;;;;;;5079904;28;20064;-72
2022/08/07 04:10:42;;;;;;;9.52;7.00;;;11.30;99.90;;;;;;5068528;28;20073;-72
2022/08/07 04:13:12;;;;;;;11.82;6.80;;;11.30;99.90;;;;;;5081917;28;20046;-72
2022/08/07 04:15:38;;;;;;;9.05;6.82;;;11.30;99.90;;;;;;5075391;28;20119;-72
2022/08/07 04:18:04;;;;;;;12.73;7.57;;;11.20;99.90;;;;;;5081478;28;20462;-72
2022/08/07 04:20:30;;;;;;;10.68;6.80;;;11.30;99.90;;;;;;5082978;28;20060;-73
2022/08/07 04:22:57;;;;;;;9.18;6.97;;;11.20;99.90;;;;;;5066293;28;20040;-73
2022/08/07 04:25:24;;;;;;;10.20;7.57;;;11.40;99.90;;;;;;5070065;28;20039;-72
2022/08/07 04:27:51;;;;;;;10.60;7.22;;;11.30;99.90;;;;;;5082674;28;20040;-71
2022/08/07 04:30:17;;;;;;;10.80;7.22;;;11.20;99.90;;;;;;5089013;28;20135;-72
2022/08/07 04:32:44;;;;;;;11.70;6.78;;;11.20;99.90;;;;;;5084738;28;20059;-72
2022/08/07 04:35:10;;;;;;;11.85;6.60;;;11.30;99.90;;;;;;5082610;28;20042;-73
2022/08/07 04:37:35;;;;;;;8.75;6.82;;;11.30;99.90;;;;;;5077585;28;20040;-71
2022/08/07 04:40:02;;;;;;;7.90;6.45;;;11.30;99.90;;;;;;5084965;28;20043;-72
2022/08/07 04:42:30;;;;;;;8.75;6.82;;;11.40;99.90;;;;;;5068578;28;20178;-72
2022/08/07 04:44:59;;;;;;;10.95;7.25;;;11.40;99.90;;;;;;5066497;28;20709;-74
2022/08/07 04:47:52;;;;;;;10.90;6.93;;;11.50;99.90;;;;;;5062499;28;20424;-73
2022/08/07 04:50:33;;;;;;;10.45;7.15;;;11.50;99.90;;;;;;4988526;28;20081;-72
2022/08/07 04:53:07;;;;;;;9.57;6.95;;;11.50;99.90;;;;;;4983157;28;20050;-73
2022/08/07 04:55:45;;;;;;;12.05;6.68;;;11.60;99.90;;;;;;4983533;28;20156;-72
2022/08/07 04:58:21;;;;;;;10.05;6.57;;;11.60;99.90;;;;;;4989389;28;20049;-72
2022/08/07 05:01:02;;;;;;;8.98;6.90;;;11.70;99.90;;;;;;4983413;28;20163;-73
2022/08/07 05:03:43;;;;;;;9.32;6.82;;;11.80;99.90;;;;;;4991871;28;20176;-73
2022/08/07 05:06:19;;;;;;;10.65;6.53;;;11.80;99.90;;;;;;5003488;28;20433;-71
2022/08/07 05:08:49;;;;;;;8.38;6.40;;;11.90;99.90;;;;;;5001090;28;20050;-73
2022/08/07 05:11:20;;;;;;;9.52;6.68;;;12.10;99.90;;;;;;4986981;28;20141;-72
2022/08/07 05:14:05;;;;;;;12.40;6.50;;;12.00;99.90;;;;;;4989352;28;20053;-74
2022/08/07 05:16:33;;;;;;;11.82;6.18;;;12.10;99.90;;;;;;4985699;28;20087;-72
2022/08/07 05:19:28;;;;;;;7.53;6.10;;;12.20;99.90;;;;;;4983090;28;20082;-73
2022/08/07 05:21:57;;;;;;;8.10;6.32;;;12.30;99.90;;;;;;4996394;28;20050;-73
2022/08/07 05:24:24;;;;;;;9.07;6.40;;;12.30;99.90;;;;;;4985295;28;20077;-72
2022/08/07 05:26:54;;;;;;;8.15;5.97;;;12.50;99.90;;;;;;5012209;28;20461;-72
2022/08/07 05:29:22;;;;;;;8.48;6.10;;;12.50;99.90;;;;;;5084121;28;20046;-71
2022/08/07 05:31:49;;;;;;;14.77;6.78;;;12.50;99.90;;;;;;5078792;28;20040;-71
2022/08/07 05:34:16;;;;;;;8.82;6.30;;;12.60;99.90;;;;;;5081431;28;20495;-73
2022/08/07 05:36:51;;;;;;;8.65;5.88;;;12.70;99.90;;;;;;5084176;28;20037;-70
2022/08/07 05:39:19;;;;;;;10.93;6.20;;;12.80;99.90;;;;;;5078372;28;20126;-72
2022/08/07 05:41:47;;;;;;;11.43;6.22;;;12.80;99.90;;;;;;5084892;28;20125;-72
2022/08/07 05:44:15;;;;;;;10.95;6.10;;;12.90;99.90;;;;;;5085976;28;20036;-72
2022/08/07 05:46:42;;;;;;;10.88;6.40;;;12.90;99.90;;;;;;5060434;28;20055;-73
2022/08/07 05:49:10;;;;;;;9.05;6.38;;;13.00;99.90;;;;;;5089833;28;20061;-73
2022/08/07 05:51:36;;;;;;;10.18;5.93;;;13.10;99.90;;;;;;5070951;28;20102;-71
2022/08/07 05:54:02;;;;;;;7.13;5.85;;;13.20;99.90;;;;;;5083125;28;20044;-74
2022/08/07 05:56:30;;;;;;;8.48;6.30;;;13.20;99.90;;;;;;5090591;28;20092;-74
2022/08/07 05:58:58;;;;;;;10.52;6.65;;;13.30;99.90;;;;;;5086695;28;20039;-71
2022/08/07 06:01:26;;;;;;;12.13;6.22;;;13.30;99.90;;;;;;5085832;28;20086;-71
2022/08/07 06:03:54;;;;;;;7.78;5.60;;;13.40;99.90;;;;;;5083188;28;20130;-73
2022/08/07 06:06:22;;;;;;;8.65;6.03;;;13.40;99.90;;;;;;5081201;28;20447;-72
2022/08/07 06:08:48;;;;;;;8.20;5.65;;;13.60;99.90;;;;;;5081538;28;20064;-75
2022/08/07 06:11:15;;;;;;;9.00;5.95;;;13.60;99.90;;;;;;5086475;28;20444;-73
2022/08/07 06:13:41;;;;;;;11.45;5.97;;;13.60;99.90;;;;;;5068751;28;20421;-72
2022/08/07 06:16:08;;;;;;;9.25;5.70;;;13.70;99.90;;;;;;5084583;28;20052;-71
2022/08/07 06:18:34;;;;;;;7.57;5.60;;;13.80;99.90;;;;;;5078635;28;20036;-75
2022/08/07 06:21:02;;;;;;;7.10;5.65;;;13.90;99.90;;;;;;5076202;28;20786;-72
2022/08/07 06:23:28;;;;;;;7.70;5.15;;;14.00;99.90;;;;;;5062664;28;20048;-73
2022/08/07 06:25:55;;;;;;;7.00;5.25;;;14.10;99.90;;;;;;5079270;28;20028;-72
2022/08/07 06:28:21;;;;;;;7.25;5.28;;;14.20;99.90;;;;;;5071814;28;20044;-73
2022/08/07 06:30:47;;;;;;;9.63;5.72;;;14.30;99.90;;;;;;5076052;28;20047;-71
2022/08/07 06:33:12;;;;;;;6.68;5.25;;;14.30;99.90;;;;;;5079652;28;20420;-75
2022/08/07 06:35:38;;;;;;;8.15;5.20;;;14.40;99.90;;;;;;5077281;28;20066;-73
2022/08/07 06:38:05;;;;;;;8.18;5.30;;;14.50;99.90;;;;;;5079958;28;20118;-76
2022/08/07 06:40:39;;;;;;;12.52;5.40;;;14.60;99.90;;;;;;5079285;28;20781;-74
2022/08/07 06:43:07;;;;;;;11.18;5.45;;;14.70;99.90;;;;;;5077294;28;20047;-74
2022/08/07 06:45:33;;;;;;;8.32;5.65;;;14.80;99.90;;;;;;5080498;28;20032;-74
2022/08/07 06:48:00;;;;;;;9.98;5.50;;;14.80;99.90;;;;;;5077072;28;20806;-72
2022/08/07 06:50:27;;;;;;;7.88;5.60;;;14.90;99.90;;;;;;5080021;28;20192;-73
2022/08/07 06:52:55;;;;;;;8.10;5.43;;;15.10;99.90;;;;;;5077681;28;20051;-72
2022/08/07 06:55:26;;;;;;;8.88;5.30;;;15.10;99.90;;;;;;5079668;28;20059;-74
2022/08/07 06:57:57;;;;;;;8.65;5.60;;;15.20;99.90;;;;;;5084535;28;20052;-75
2022/08/07 07:00:23;;;;;;;11.73;5.93;;;15.30;99.90;;;;;;5088543;28;20067;-74
2022/08/07 07:02:50;;;;;;;11.30;6.00;;;15.40;99.90;;;;;;5081668;28;20044;-71
2022/08/07 07:05:18;;;;;;;12.07;5.78;;;15.50;99.90;;;;;;5076770;28;20154;-73
2022/08/07 07:07:45;;;;;;;8.57;5.28;;;15.60;99.90;;;;;;5066482;28;20048;-72
2022/08/07 07:10:12;;;;;;;10.43;5.30;;;15.70;99.90;;;;;;5084626;28;20059;-74
2022/08/07 07:12:53;;;;;;;8.00;5.40;;;15.70;99.90;;;;;;5082672;28;20117;-74
2022/08/07 07:15:38;;;;;;;8.07;4.47;;;15.80;99.90;;;;;;5081314;28;20048;-73
2022/08/07 07:18:22;;;;;;;4.83;3.50;;;15.90;99.90;;;;;;5083065;28;20036;-76
2022/08/07 07:20:55;;;;;;;6.88;3.80;;;16.00;99.90;;;;;;5084710;28;20052;-73
2022/08/07 07:23:22;;;;;;;3.97;3.50;;;16.10;99.90;;;;;;5073936;28;20488;-70
2022/08/07 07:25:51;;;;;;;5.78;3.70;;;16.20;99.90;;;;;;5084606;28;20048;-71
2022/08/07 07:28:24;;;;;;;4.25;3.60;;;16.30;99.90;;;;;;5066004;28;20052;-73
2022/08/07 07:31:00;;;;;;;4.70;3.35;;;16.30;99.90;;;;;;5086847;28;20036;-73
2022/08/07 07:33:29;;;;;;;7.32;3.40;;;16.50;99.90;;;;;;5062986;28;20051;-72
2022/08/07 07:35:56;;;;;;;4.03;3.47;;;16.50;99.90;;;;;;5080368;28;20064;-72
2022/08/07 07:38:26;;;;;;;6.72;3.47;;;16.60;99.90;;;;;;5080564;28;20064;-73
2022/08/07 07:40:57;;;;;;;5.45;3.97;;;16.60;99.90;;;;;;5087529;28;20494;-72
2022/08/07 07:43:25;;;;;;;4.13;3.70;;;16.80;99.90;;;;;;5086589;28;20052;-74
2022/08/07 07:45:52;;;;;;;5.93;3.72;;;16.90;99.90;;;;;;5082386;28;20029;-71
2022/08/07 07:48:21;;;;;;;5.97;3.97;;;17.00;99.90;;;;;;5080402;28;20074;-72
2022/08/07 07:50:48;;;;;;;6.47;4.22;;;17.00;99.90;;;;;;5078393;28;20036;-72
2022/08/07 07:53:17;;;;;;;5.00;3.38;;;17.00;99.90;;;;;;5076764;28;20055;-73
2022/08/07 07:55:43;;;;;;;4.45;3.63;;;17.10;99.90;;;;;;5077991;28;20359;-72
2022/08/07 07:58:10;;;;;;;4.20;3.67;;;17.30;99.90;;;;;;5076550;28;20048;-74
2022/08/07 08:00:37;;;;;;;5.78;3.90;;;17.20;99.90;;;;;;5083244;28;20139;-72
2022/08/07 08:03:10;;;;;;;6.28;3.50;;;17.30;99.90;;;;;;5075253;28;20472;-74
2022/08/07 08:05:40;;;;;;;4.43;3.50;;;17.30;99.90;;;;;;5080510;28;20036;-74
2022/08/07 08:08:08;;;;;;;10.05;4.15;;;17.40;99.90;;;;;;5062286;28;20044;-74
2022/08/07 08:10:35;;;;;;;5.20;4.28;;;17.40;99.90;;;;;;5062435;28;20712;-74
2022/08/07 08:13:02;;;;;;;7.43;4.20;;;17.40;99.90;;;;;;5078422;28;20040;-74
2022/08/07 08:15:32;;;;;;;5.93;4.32;;;17.50;99.90;;;;;;5072729;28;20044;-71
2022/08/07 08:17:59;;;;;;;11.57;4.05;;;17.50;99.90;;;;;;5078793;28;20051;-72
2022/08/07 08:20:28;;;;;;;8.27;4.38;;;17.50;99.90;;;;;;5087976;28;20122;-74
2022/08/07 08:28:27;;;;;;;8.55;4.35;;;17.70;99.90;;;;;;5082215;28;20036;-71
2022/08/07 08:30:56;;;;;;;9.32;4.30;;;17.80;99.90;;;;;;5087897;28;20039;-75
2022/08/07 08:33:25;;;;;;;4.53;3.70;;;17.80;99.90;;;;;;5080694;28;20058;-73
2022/08/07 08:35:54;;;;;;;6.53;4.15;;;17.90;99.90;;;;;;5078789;28;20044;-73
2022/08/07 08:38:24;;;;;;;7.65;4.20;;;18.00;99.90;;;;;;5081054;28;20446;-70
2022/08/07 08:41:13;;;;;;;7.50;4.13;;;18.00;99.90;;;;;;5079856;28;20098;-72
2022/08/07 08:43:48;;;;;;;7.20;4.53;;;17.90;99.90;;;;;;5066223;28;20218;-73
2022/08/07 08:46:22;;;;;;;6.15;3.80;;;18.00;99.90;;;;;;5076056;28;20328;-71
2022/08/07 08:48:58;;;;;;;6.13;4.00;;;18.20;99.90;;;;;;5083752;28;20040;-72
2022/08/07 08:51:30;;;;;;;5.40;3.60;;;18.20;99.90;;;;;;5079036;28;20036;-72
2022/08/07 08:54:06;;;;;;;4.85;3.63;;;18.30;99.90;;;;;;5070680;28;20047;-72
2022/08/07 08:56:37;;;;;;;6.70;3.83;;;18.50;99.90;;;;;;5072563;28;20452;-72
2022/08/07 08:59:09;;;;;;;4.20;3.28;;;18.80;99.90;;;;;;5076133;28;20040;-73
2022/08/07 09:01:59;;;;;;;8.43;3.72;;;18.80;99.90;;;;;;5077928;28;20032;-71
2022/08/07 09:04:34;;;;;;;4.90;3.38;;;18.90;99.90;;;;;;5064004;28;20043;-73
2022/08/07 09:07:14;;;;;;;5.93;4.03;;;18.70;99.90;;;;;;5079406;28;20044;-70
2022/08/07 09:10:17;;;;;;;5.78;3.42;;;19.00;99.90;;;;;;5081576;28;20052;-72
2022/08/07 09:12:46;;;;;;;3.55;3.03;;;18.90;99.90;;;;;;5080301;28;20035;-71
2022/08/07 09:15:27;;;;;;;4.57;3.28;;;18.80;99.90;;;;;;5065349;28;20048;-73
2022/08/07 09:18:23;;;;;;;4.90;3.22;;;18.80;99.90;;;;;;5066353;28;20096;-74
2022/08/07 09:21:23;;;;;;;4.93;2.85;;;18.70;99.90;;;;;;5075633;28;20044;-72
2022/08/07 09:24:02;;;;;;;3.08;2.75;;;19.10;99.90;;;;;;5070428;28;20039;-72
2022/08/07 09:26:59;;;;;;;3.88;3.00;;;19.30;99.90;;;;;;5081526;28;20048;-72
2022/08/07 09:29:56;;;;;;;5.63;3.10;;;19.70;99.90;;;;;;5082693;28;20044;-73
2022/08/07 09:32:46;;;;;;;4.03;2.85;;;20.00;99.90;;;;;;5089620;28;20032;-72
2022/08/07 09:35:42;;;;;;;5.93;3.10;;;20.10;99.90;;;;;;5065970;28;20051;-72
2022/08/07 09:38:12;;;;;;;3.33;2.40;;;20.30;99.90;;;;;;5080184;28;20809;-73
2022/08/07 09:41:19;;;;;;;4.53;2.47;;;20.50;99.90;;;;;;5081299;28;20068;-71
2022/08/07 09:44:01;;;;;;;4.70;2.30;;;20.80;99.90;;;;;;5063625;28;20465;-72
2022/08/07 09:46:48;;;;;;;6.22;2.42;;;21.00;99.90;;;;;;5084446;28;20036;-72
2022/08/07 09:49:44;;;;;;;3.47;2.53;;;20.90;99.90;;;;;;5082506;28;20039;-73
2022/08/07 09:52:32;;;;;;;4.45;2.83;;;21.00;99.90;;;;;;5068305;28;20040;-72
2022/08/07 09:55:17;;;;;;;5.10;2.47;;;21.10;99.90;;;;;;5067385;28;20092;-71
2022/08/07 09:58:25;;;;;;;2.60;2.40;;;21.20;99.90;;;;;;5076834;28;20073;-72
2022/08/07 10:01:08;;;;;;;2.90;2.03;;;21.40;99.90;;;;;;5064428;28;20402;-72
2022/08/07 10:04:08;;;;;;;5.00;2.55;;;21.10;98.70;;;;;;5057801;28;20032;-73
2022/08/07 10:06:40;;;;;;;4.57;2.38;;;21.20;99.50;;;;;;5069412;28;20050;-73
2022/08/07 10:09:27;;;;;;;5.80;2.42;;;21.20;99.90;;;;;;5079570;28;20052;-74
2022/08/07 10:12:25;;;;;;;3.75;2.60;;;21.40;99.50;;;;;;5089238;28;20098;-73
2022/08/07 10:15:05;;;;;;;3.63;2.60;;;21.60;99.90;;;;;;5083614;28;20041;-72
2022/08/07 10:18:07;;;;;;;4.60;2.58;;;21.70;99.90;;;;;;5078629;28;20052;-73
2022/08/07 10:20:38;;;;;;;5.32;2.78;;;21.30;99.90;;;;;;5063538;28;20105;-74
2022/08/07 10:23:18;;;;;;;5.05;2.40;;;21.10;99.90;;;;;;5067273;28;20383;-73
2022/08/07 10:26:21;;;;;;;2.58;1.90;;;21.10;99.70;;;;;;5077004;28;20047;-74
2022/08/07 10:29:10;;;;;;;3.08;2.10;;;21.60;99.70;;;;;;5078780;28;20079;-74
2022/08/07 10:31:52;;;;;;;3.35;2.25;;;21.70;99.00;;;;;;5081210;28;20058;-74
2022/08/07 10:34:36;;;;;;;3.58;2.28;;;22.00;99.10;;;;;;5076968;28;20052;-73
2022/08/07 10:37:36;;;;;;;2.47;2.25;;;22.20;99.50;;;;;;5077252;28;20054;-73
2022/08/07 10:40:09;;;;;;;7.22;2.72;;;22.30;99.30;;;;;;5078728;28;20127;-75
2022/08/07 10:42:56;;;;;;;3.92;2.15;;;22.70;99.90;;;;;;5068159;28;20130;-73
2022/08/07 10:45:57;;;;;;;5.18;2.67;;;23.00;98.10;;;;;;5076836;28;20044;-74
2022/08/07 10:48:47;;;;;;;3.38;2.45;;;23.10;99.00;;;;;;4976736;28;20073;-73
2022/08/07 10:51:35;;;;;;;3.75;2.25;;;23.30;99.10;;;;;;4995156;28;20448;-75
2022/08/07 10:54:18;;;;;;;4.63;2.45;;;23.50;98.30;;;;;;4974986;28;20506;-74
2022/08/07 10:56:59;;;;;;;2.88;1.90;;;23.20;98.50;;;;;;4992699;28;20061;-74
2022/08/07 10:59:40;;;;;;;2.45;2.05;;;23.20;97.70;;;;;;4982988;28;20041;-75
2022/08/07 11:02:17;;;;;;;4.05;2.22;;;23.10;97.80;;;;;;4974862;28;20058;-74
2022/08/07 11:05:10;;;;;;;5.72;2.13;;;23.00;97.30;;;;;;4984947;28;20049;-74
2022/08/07 11:08:04;;;;;;;4.97;2.30;;;23.10;98.00;;;;;;4991786;28;20038;-75
2022/08/07 11:11:00;;;;;;;2.45;1.92;;;23.10;98.10;;;;;;4980485;28;20061;-73
2022/08/07 11:13:46;;;;;;;5.28;2.13;;;23.60;98.50;;;;;;5008632;28;20061;-73
2022/08/07 11:16:35;;;;;;;5.20;1.88;;;23.80;97.30;;;;;;5008262;28;20049;-74
2022/08/07 11:19:04;;;;;;;2.15;1.73;;;24.10;97.80;;;;;;4974778;28;20119;-76
2022/08/07 11:21:35;;;;;;;2.03;1.70;;;24.50;97.90;;;;;;5015102;28;20049;-76
2022/08/07 11:24:34;;;;;;;3.33;1.60;;;25.00;98.10;;;;;;5083266;28;20090;-77
2022/08/07 11:27:12;;;;;;;2.42;1.70;;;25.60;98.00;;;;;;5073126;28;20086;-76
2022/08/07 11:30:12;;;;;;;2.35;1.67;;;25.30;94.60;;;;;;5081687;28;20040;-74
2022/08/07 11:32:44;;;;;;;3.08;1.40;;;25.40;96.30;;;;;;5083319;28;20403;-74
2022/08/07 11:35:17;;;;;;;4.20;1.67;;;25.80;96.30;;;;;;5085554;28;20039;-74
2022/08/07 11:38:13;;;;;;;3.15;1.90;;;26.00;95.40;;;;;;5088439;28;20040;-72
2022/08/07 11:40:59;;;;;;;5.50;1.85;;;25.10;95.90;;;;;;5084747;28;20453;-76
2022/08/07 11:43:33;;;;;;;4.15;1.80;;;24.60;95.60;;;;;;5095296;28;20597;-74
2022/08/07 11:46:25;;;;;;;;;;;24.30;95.80;;;;;;5077097;28;22215;-76
2022/08/07 11:49:31;;;;;;;2.67;1.50;;;24.60;96.50;;;;;;5044909;28;20043;-74
2022/08/07 11:51:57;;;;;;;4.40;1.65;;;24.40;95.30;;;;;;5076761;28;20047;-72
2022/08/07 11:54:48;;;;;;;5.13;1.70;;;24.60;96.20;;;;;;5063460;28;20399;-75
2022/08/07 11:57:26;;;;;;;2.17;1.67;;;24.70;95.70;;;;;;5074513;28;20109;-73
2022/08/07 11:59:54;;;;;;;2.75;1.40;;;24.80;94.90;;;;;;5062136;28;20040;-75
2022/08/07 12:02:23;;;;;;;2.72;1.40;;;24.80;96.00;;;;;;5060465;28;20056;-76
2022/08/07 12:05:06;;;;;;;2.78;1.42;;;25.30;95.80;;;;;;5061877;28;20051;-76
2022/08/07 12:07:37;;;;;;;1.73;1.50;;;25.60;94.90;;;;;;5073472;28;20067;-74
2022/08/07 12:10:23;;;;;;;2.45;1.30;;;25.80;94.60;;;;;;5077369;28;20056;-74
2022/08/07 12:13:25;;;;;;;2.35;1.45;;;26.10;94.50;;;;;;5074551;28;20110;-74
2022/08/07 12:15:56;;;;;;;2.83;1.40;;;26.60;94.00;;;;;;5043644;28;20050;-73
2022/08/07 12:18:54;;;;;;;2.90;1.30;;;27.00;93.60;;;;;;5053814;28;20060;-76
2022/08/07 12:21:32;;;;;;;2.72;1.30;;;27.70;94.30;;;;;;5018128;28;20039;-73
2022/08/07 12:24:35;;;;;;;1.60;1.30;;;27.60;92.80;;;;;;5020566;28;20495;-72
2022/08/07 12:27:04;;;;;;;2.92;1.33;;;27.00;92.20;;;;;;5030178;28;20041;-74
2022/08/07 12:29:59;;;;;;;2.55;1.27;;;26.10;92.60;;;;;;5024927;28;20049;-75
2022/08/07 12:32:39;;;;;;;2.47;1.35;;;25.60;93.10;;;;;;5002797;28;20111;-74
2022/08/07 12:35:08;;;;;;;4.55;1.38;;;25.60;93.00;;;;;;5020991;28;22362;-75
2022/08/07 12:37:36;;;;;;;2.47;1.58;;;24.90;93.50;;;;;;5033336;28;20114;-74
2022/08/07 12:40:03;;;;;;;3.13;1.58;;;24.50;94.30;;;;;;5015202;28;20432;-73
2022/08/07 12:42:31;;;;;;;2.83;1.73;;;24.30;94.90;;;;;;5021263;28;20052;-74
2022/08/07 12:45:02;;;;;;;5.25;2.00;;;24.10;95.30;;;;;;5025488;28;20041;-73
2022/08/07 12:47:44;;;;;;;2.58;1.90;;;24.00;95.60;;;;;;5002567;28;20677;-74
2022/08/07 12:50:31;;;;;;;2.28;1.83;;;23.90;96.00;;;;;;5017615;28;20105;-74
2022/08/07 12:53:10;;;;;;;3.40;1.90;;;23.60;95.90;;;;;;5021804;28;20033;-75
2022/08/07 12:56:02;;;;;;;6.47;1.95;;;23.60;96.00;;;;;;5022765;28;20037;-74
2022/08/07 12:58:36;;;;;;;4.68;1.70;;;23.40;95.90;;;;;;5070285;28;20075;-73
2022/08/07 13:01:28;;;;;;;4.50;2.10;;;23.10;96.10;;;;;;5078456;28;20455;-73
2022/08/07 13:04:09;;;;;;;3.47;1.92;;;23.20;96.50;;;;;;5068097;28;20074;-74
2022/08/07 13:07:09;;;;;;;3.85;1.90;;;23.10;96.50;;;;;;5081678;28;20039;-74
2022/08/07 13:10:00;;;;;;;3.97;2.13;;;22.80;97.10;;;;;;5076651;28;20580;-75
2022/08/07 13:12:40;;;;;;;6.40;2.33;;;22.80;97.00;;;;;;5073258;28;20051;-74
2022/08/07 13:15:25;;;;;;;2.50;2.30;;;22.80;97.30;;;;;;5066234;28;20054;-74
2022/08/07 13:18:23;;;;;;;3.58;2.00;;;22.80;97.40;;;;;;5081020;28;20395;-73
2022/08/07 13:21:21;;;;;;;4.20;2.35;;;22.90;97.40;;;;;;4984640;28;20078;-74
2022/08/07 13:23:59;;;;;;;4.30;2.20;;;22.90;97.20;;;;;;5003077;28;20096;-75
2022/08/07 13:26:52;;;;;;;4.63;2.25;;;23.10;97.00;;;;;;4986820;28;20057;-74